Time;durP1;ratioP1;P1;durP2;ratioP2;P2;SDS_P1;SDS_P2;PMS_P1;PMS_P2;Temp;Humidity;BMP_temperature;BMP_pressure;BME280_temperature;BME280_humidity;BME280_pressure;Samples;Min_cycle;Max_cycle;Signal;HPM_P1;HPM_P2
2022/08/16 00:01:55;;;;;;;9.60;3.90;;;19.60;1.00;;;;;;5051548;28;20481;-51
2022/08/16 00:04:21;;;;;;;9.17;4.00;;;19.60;32.90;;;;;;5049290;28;20857;-51
2022/08/16 00:06:46;;;;;;;8.60;4.28;;;19.60;99.90;;;;;;5051499;28;20405;-52
2022/08/16 00:09:12;;;;;;;9.18;4.00;;;19.50;99.90;;;;;;5050424;28;20421;-55
2022/08/16 00:11:40;;;;;;;9.17;3.97;;;19.60;1.00;;;;;;5051044;28;20389;-52
2022/08/16 00:14:10;;;;;;;9.70;3.67;;;19.60;1.00;;;;;;5050889;28;20385;-52
2022/08/16 00:16:36;;;;;;;8.45;4.10;;;19.50;99.90;;;;;;5050822;28;20411;-52
2022/08/16 00:19:03;;;;;;;11.50;4.20;;;19.60;99.90;;;;;;5051343;28;20397;-52
2022/08/16 00:21:29;;;;;;;9.07;4.00;;;19.60;99.90;;;;;;5050081;28;21232;-52
2022/08/16 00:23:55;;;;;;;10.90;4.50;;;19.60;99.90;;;;;;5051307;28;20378;-51
2022/08/16 00:26:21;;;;;;;8.88;4.20;;;19.60;99.90;;;;;;5049763;28;20413;-52
2022/08/16 00:28:47;;;;;;;8.65;4.40;;;19.60;99.90;;;;;;5050533;28;20401;-55
2022/08/16 00:31:12;;;;;;;10.27;4.37;;;19.70;99.90;;;;;;5050906;28;20448;-55
2022/08/16 00:33:38;;;;;;;9.77;4.60;;;19.70;99.90;;;;;;5050640;28;20496;-52
2022/08/16 00:36:04;;;;;;;9.30;4.50;;;19.60;1.00;;;;;;5051087;28;20762;-53
2022/08/16 00:38:29;;;;;;;9.23;4.00;;;19.60;99.90;;;;;;5049905;28;20385;-52
2022/08/16 00:40:55;;;;;;;10.33;4.10;;;19.50;1.00;;;;;;5051006;28;20479;-52
2022/08/16 00:43:22;;;;;;;8.93;4.10;;;19.50;1.00;;;;;;5049654;28;20398;-52
2022/08/16 00:45:57;;;;;;;8.93;4.80;;;19.60;1.00;;;;;;5050563;28;20578;-52
2022/08/16 00:48:23;;;;;;;8.90;4.40;;;19.70;13.10;;;;;;5049494;28;20871;-52
2022/08/16 00:50:48;;;;;;;9.23;4.20;;;19.80;1.00;;;;;;5050612;28;20392;-52
2022/08/16 00:53:16;;;;;;;9.27;4.72;;;19.90;99.90;;;;;;5049965;28;20393;-55
2022/08/16 00:55:47;;;;;;;9.07;4.30;;;19.90;99.90;;;;;;5050334;28;20406;-52
2022/08/16 00:58:14;;;;;;;8.30;4.10;;;19.80;99.90;;;;;;5050170;28;20404;-55
2022/08/16 01:00:40;;;;;;;8.60;3.85;;;20.00;1.00;;;;;;5050121;28;20685;-51
2022/08/16 01:03:10;;;;;;;9.15;4.20;;;20.00;1.00;;;;;;5049877;28;20397;-51
2022/08/16 01:05:37;;;;;;;8.98;4.45;;;20.00;1.00;;;;;;5049307;28;20413;-51
2022/08/16 01:08:04;;;;;;;8.17;4.37;;;20.00;1.00;;;;;;5050408;28;20468;-52
2022/08/16 01:10:32;;;;;;;9.30;4.63;;;19.90;1.00;;;;;;5049356;28;20509;-51
2022/08/16 01:13:03;;;;;;;8.50;4.13;;;19.80;26.40;;;;;;5050095;28;20374;-52
2022/08/16 01:15:29;;;;;;;9.27;4.22;;;19.80;99.90;;;;;;5029538;28;20382;-51
2022/08/16 01:17:56;;;;;;;9.30;4.10;;;19.70;1.00;;;;;;5038559;28;20405;-51
2022/08/16 01:20:26;;;;;;;11.88;4.53;;;19.60;99.90;;;;;;5049331;28;20382;-51
2022/08/16 01:23:06;;;;;;;9.60;4.60;;;19.50;1.00;;;;;;5050088;28;20859;-51
2022/08/16 01:25:36;;;;;;;8.70;4.40;;;19.50;1.00;;;;;;5048776;28;20433;-51
2022/08/16 01:28:06;;;;;;;9.65;4.50;;;19.50;28.40;;;;;;5049767;28;20448;-52
2022/08/16 01:30:36;;;;;;;9.65;4.60;;;19.50;6.90;;;;;;5029272;28;20394;-52
2022/08/16 01:33:05;;;;;;;9.52;4.43;;;19.30;1.00;;;;;;5046707;28;20463;-52
2022/08/16 01:35:38;;;;;;;9.10;4.10;;;19.30;1.00;;;;;;5048672;28;20671;-52
2022/08/16 01:38:32;;;;;;;8.90;4.20;;;19.20;99.90;;;;;;5049939;28;20847;-52
2022/08/16 01:41:02;;;;;;;9.73;4.18;;;19.10;99.90;;;;;;5049833;28;20378;-52
2022/08/16 01:43:30;;;;;;;9.57;4.70;;;19.10;1.00;;;;;;5048859;28;20443;-51
2022/08/16 01:45:57;;;;;;;8.30;4.60;;;19.00;99.90;;;;;;5049032;28;20432;-52
2022/08/16 01:48:29;;;;;;;9.30;4.80;;;18.90;99.90;;;;;;5048991;28;20473;-52
2022/08/16 01:50:55;;;;;;;8.98;4.53;;;18.80;1.00;;;;;;5049683;28;20809;-52
2022/08/16 01:53:20;;;;;;;11.10;4.80;;;18.80;1.00;;;;;;5048627;28;20420;-52
2022/08/16 01:55:46;;;;;;;12.07;5.20;;;18.80;1.00;;;;;;5049249;28;20443;-52
2022/08/16 01:58:15;;;;;;;9.98;4.53;;;18.70;1.00;;;;;;5049316;28;20484;-54
2022/08/16 02:00:40;;;;;;;9.73;4.80;;;18.40;1.00;;;;;;5048917;28;20393;-52
2022/08/16 02:03:07;;;;;;;10.63;4.70;;;18.50;61.40;;;;;;5049044;28;20393;-52
2022/08/16 02:05:32;;;;;;;11.32;4.93;;;18.40;99.90;;;;;;5048286;28;20474;-52
2022/08/16 02:07:58;;;;;;;10.23;4.82;;;18.50;37.60;;;;;;5049208;28;20385;-52
2022/08/16 02:10:24;;;;;;;10.77;4.85;;;18.40;99.90;;;;;;5048608;28;20782;-52
2022/08/16 02:12:50;;;;;;;10.67;5.00;;;18.40;99.90;;;;;;5049140;28;20447;-52
2022/08/16 02:15:18;;;;;;;9.93;5.22;;;18.30;99.90;;;;;;5048336;28;20505;-55
2022/08/16 02:17:43;;;;;;;9.15;4.78;;;18.30;99.90;;;;;;5049071;28;20524;-52
2022/08/16 02:20:10;;;;;;;10.07;5.10;;;18.30;99.90;;;;;;5049190;28;20480;-51
2022/08/16 02:22:36;;;;;;;11.18;4.90;;;18.30;99.90;;;;;;5048333;28;20728;-52
2022/08/16 02:25:09;;;;;;;9.20;5.20;;;18.40;99.90;;;;;;5048444;28;20898;-52
2022/08/16 02:27:35;;;;;;;9.68;4.95;;;18.40;99.90;;;;;;5029783;28;20621;-51
2022/08/16 02:30:00;;;;;;;10.00;5.13;;;18.20;99.90;;;;;;5049126;28;21033;-52
2022/08/16 02:32:26;;;;;;;10.67;5.50;;;18.30;99.90;;;;;;5052496;28;20407;-51
2022/08/16 02:34:51;;;;;;;9.60;5.10;;;18.20;99.90;;;;;;5053216;28;20393;-52
2022/08/16 02:37:17;;;;;;;10.00;5.40;;;18.10;99.90;;;;;;5052163;28;20393;-51
2022/08/16 02:39:43;;;;;;;11.90;4.90;;;18.10;99.90;;;;;;5052604;28;20397;-52
2022/08/16 02:42:09;;;;;;;10.63;5.30;;;18.00;1.00;;;;;;5052988;28;20400;-51
2022/08/16 02:44:35;;;;;;;10.63;6.03;;;18.00;1.00;;;;;;5051990;28;20408;-52
2022/08/16 02:47:00;;;;;;;10.90;5.63;;;18.00;1.00;;;;;;5052732;28;20443;-51
2022/08/16 02:49:26;;;;;;;11.70;5.77;;;18.00;1.00;;;;;;5051936;28;20386;-51
2022/08/16 02:51:51;;;;;;;10.65;6.00;;;17.90;1.00;;;;;;5052221;28;20456;-52
2022/08/16 02:54:17;;;;;;;10.90;5.55;;;17.90;1.00;;;;;;5051413;28;20393;-52
2022/08/16 02:56:43;;;;;;;10.40;5.10;;;17.90;1.00;;;;;;5052560;28;20451;-52
2022/08/16 02:59:10;;;;;;;11.35;5.60;;;18.00;1.00;;;;;;5052542;28;20397;-52
2022/08/16 03:01:35;;;;;;;9.95;5.30;;;18.00;1.00;;;;;;5051750;28;20418;-52
2022/08/16 03:04:03;;;;;;;10.33;5.50;;;18.00;1.00;;;;;;5052718;28;20412;-51
2022/08/16 03:06:29;;;;;;;13.23;5.38;;;18.10;1.00;;;;;;5051584;28;20405;-51
2022/08/16 03:08:54;;;;;;;10.85;5.55;;;18.00;1.00;;;;;;5052227;28;20383;-51
2022/08/16 03:11:20;;;;;;;11.50;5.30;;;18.00;1.00;;;;;;5051888;28;20468;-51
2022/08/16 03:13:49;;;;;;;13.57;6.00;;;17.90;1.00;;;;;;5051972;28;20428;-52
2022/08/16 03:16:16;;;;;;;10.30;5.83;;;18.00;1.00;;;;;;5051713;28;20871;-55
2022/08/16 03:18:42;;;;;;;10.82;5.50;;;18.00;1.00;;;;;;5052004;28;20374;-51
2022/08/16 03:21:08;;;;;;;10.57;5.80;;;18.10;1.00;;;;;;5051921;28;20531;-51
2022/08/16 03:23:34;;;;;;;9.20;4.95;;;18.10;1.00;;;;;;5051285;28;20451;-51
2022/08/16 03:26:00;;;;;;;10.50;5.30;;;18.10;1.00;;;;;;5051667;28;20436;-51
2022/08/16 03:28:26;;;;;;;10.00;4.95;;;18.10;1.00;;;;;;5051128;28;20405;-51
2022/08/16 03:30:52;;;;;;;12.80;6.20;;;18.10;1.00;;;;;;5051917;28;20743;-51
2022/08/16 03:33:18;;;;;;;9.93;5.68;;;18.10;1.00;;;;;;5051127;28;20394;-54
2022/08/16 03:35:44;;;;;;;11.70;6.27;;;17.90;1.00;;;;;;5051795;28;20447;-50
2022/08/16 03:38:13;;;;;;;10.45;5.80;;;17.90;1.00;;;;;;5051655;28;20436;-50
2022/08/16 03:40:40;;;;;;;9.93;5.10;;;17.80;1.00;;;;;;5049781;28;20439;-51
2022/08/16 03:43:09;;;;;;;9.48;5.32;;;17.90;1.00;;;;;;5051609;28;20507;-53
2022/08/16 03:45:36;;;;;;;10.70;6.05;;;17.80;1.00;;;;;;5051085;28;21023;-51
2022/08/16 03:48:03;;;;;;;10.93;5.63;;;17.70;1.00;;;;;;5033810;28;20740;-51
2022/08/16 03:50:28;;;;;;;11.20;6.22;;;17.70;1.00;;;;;;5050695;28;20428;-51
2022/08/16 03:52:54;;;;;;;10.87;5.93;;;17.80;1.00;;;;;;5051688;28;20425;-51
2022/08/16 03:55:20;;;;;;;9.90;5.90;;;17.70;1.00;;;;;;5049692;28;20808;-51
2022/08/16 03:57:48;;;;;;;10.90;6.00;;;17.70;1.00;;;;;;5051010;28;20403;-51
2022/08/16 04:00:18;;;;;;;15.02;5.80;;;17.70;1.00;;;;;;5050829;28;20405;-55
2022/08/16 04:02:44;;;;;;;10.93;6.13;;;17.70;1.00;;;;;;5048274;28;20427;-52
2022/08/16 04:05:12;;;;;;;11.63;6.30;;;17.60;1.00;;;;;;5051214;28;20402;-51
2022/08/16 04:07:38;;;;;;;11.15;5.90;;;17.60;1.00;;;;;;5049838;28;20412;-51
2022/08/16 04:10:09;;;;;;;11.30;6.30;;;17.60;1.00;;;;;;5050800;28;20393;-53
2022/08/16 04:12:34;;;;;;;12.80;6.30;;;17.60;1.00;;;;;;5050123;28;20399;-51
2022/08/16 04:15:02;;;;;;;11.25;6.30;;;17.50;1.00;;;;;;5050977;28;20381;-51
2022/08/16 04:17:28;;;;;;;11.93;5.90;;;17.60;1.00;;;;;;5049945;28;20401;-51
2022/08/16 04:19:54;;;;;;;10.67;5.97;;;17.60;1.00;;;;;;5050796;28;20451;-51
2022/08/16 04:22:21;;;;;;;13.65;6.30;;;17.50;1.00;;;;;;5049628;28;20389;-52
2022/08/16 04:24:47;;;;;;;11.70;5.93;;;17.50;1.00;;;;;;5049646;28;20555;-51
2022/08/16 04:27:13;;;;;;;13.20;6.60;;;17.60;1.00;;;;;;5050356;28;20479;-51
2022/08/16 04:29:39;;;;;;;12.77;6.00;;;17.70;1.00;;;;;;5049301;28;20593;-51
2022/08/16 04:32:05;;;;;;;11.50;6.20;;;17.80;1.00;;;;;;5050179;28;20412;-51
2022/08/16 04:34:33;;;;;;;12.35;6.03;;;17.90;1.00;;;;;;5049859;28;20874;-51
2022/08/16 04:36:59;;;;;;;12.27;7.20;;;18.10;1.00;;;;;;5049248;28;20770;-52
2022/08/16 04:39:26;;;;;;;12.50;6.40;;;18.20;1.00;;;;;;5049310;28;20390;-52
2022/08/16 04:41:51;;;;;;;12.95;6.45;;;18.30;1.00;;;;;;5050039;28;20397;-51
2022/08/16 04:44:17;;;;;;;12.30;6.20;;;18.50;1.00;;;;;;5049708;28;20402;-55
2022/08/16 04:46:43;;;;;;;11.23;5.83;;;18.50;1.00;;;;;;5049999;28;20394;-51
2022/08/16 04:49:10;;;;;;;11.25;5.60;;;18.60;1.00;;;;;;5050215;28;20394;-51
2022/08/16 04:51:37;;;;;;;14.05;6.00;;;18.60;1.00;;;;;;5049056;28;20385;-52
2022/08/16 04:54:03;;;;;;;12.43;6.63;;;18.60;1.00;;;;;;5049672;28;20855;-51
2022/08/16 04:56:28;;;;;;;11.45;6.10;;;18.90;1.00;;;;;;5048736;28;20984;-51
2022/08/16 04:58:54;;;;;;;12.07;6.43;;;19.10;99.90;;;;;;5050358;28;20451;-53
2022/08/16 05:01:20;;;;;;;11.48;6.65;;;19.60;99.90;;;;;;5048606;28;20428;-52
2022/08/16 05:03:46;;;;;;;12.18;6.50;;;20.10;1.00;;;;;;5049768;28;20847;-52
2022/08/16 05:06:12;;;;;;;10.38;5.70;;;20.50;1.00;;;;;;5049402;28;20908;-52
2022/08/16 05:08:38;;;;;;;11.07;6.10;;;20.80;99.90;;;;;;5049063;28;20424;-52
2022/08/16 05:11:06;;;;;;;13.00;6.03;;;21.00;99.90;;;;;;5049590;28;20415;-51
2022/08/16 05:13:35;;;;;;;14.70;6.20;;;20.90;99.90;;;;;;5048814;28;20389;-52
2022/08/16 05:16:01;;;;;;;12.88;5.90;;;20.70;97.00;;;;;;5049840;28;20394;-52
2022/08/16 05:18:27;;;;;;;13.55;6.10;;;20.60;1.00;;;;;;5048608;28;20389;-52
2022/08/16 05:20:52;;;;;;;11.27;6.20;;;20.50;99.90;;;;;;5049283;28;20436;-51
2022/08/16 05:23:18;;;;;;;13.63;5.85;;;20.40;1.00;;;;;;5048994;28;20443;-55
2022/08/16 05:25:44;;;;;;;12.52;6.03;;;20.40;1.00;;;;;;5049089;28;20830;-51
2022/08/16 05:28:10;;;;;;;12.53;6.37;;;20.40;99.90;;;;;;5049108;28;20467;-52
2022/08/16 05:30:36;;;;;;;14.73;6.32;;;20.30;99.90;;;;;;5048756;28;20389;-52
2022/08/16 05:33:03;;;;;;;13.00;6.47;;;20.30;1.00;;;;;;5048996;28;20389;-51
2022/08/16 05:35:29;;;;;;;13.60;6.40;;;20.40;99.90;;;;;;5048036;28;20916;-51
2022/08/16 05:37:54;;;;;;;14.27;6.43;;;20.60;99.90;;;;;;5048187;28;20417;-51
2022/08/16 05:40:20;;;;;;;10.70;6.32;;;20.70;1.00;;;;;;5046382;28;20397;-54
2022/08/16 05:42:46;;;;;;;13.55;6.63;;;20.90;1.00;;;;;;5049014;28;20429;-51
2022/08/16 05:45:12;;;;;;;14.50;7.10;;;20.80;1.00;;;;;;5048602;28;20416;-51
2022/08/16 05:47:38;;;;;;;16.30;6.90;;;20.80;1.00;;;;;;5048995;28;20503;-51
2022/08/16 05:50:05;;;;;;;14.30;6.10;;;20.80;1.00;;;;;;5046097;28;20435;-51
2022/08/16 05:52:31;;;;;;;12.35;6.30;;;21.00;1.00;;;;;;5048157;28;20480;-51
2022/08/16 05:54:57;;;;;;;13.45;6.70;;;21.00;99.90;;;;;;5049197;28;20392;-52
2022/08/16 05:57:23;;;;;;;11.07;6.23;;;21.10;99.90;;;;;;5048039;28;20401;-52
2022/08/16 05:59:49;;;;;;;11.98;6.53;;;21.20;1.00;;;;;;5046588;28;20469;-52
2022/08/16 06:02:15;;;;;;;14.23;6.70;;;21.40;99.90;;;;;;5047557;28;20390;-52
2022/08/16 06:04:40;;;;;;;18.17;6.85;;;21.50;1.00;;;;;;5042517;28;20425;-52
2022/08/16 06:07:07;;;;;;;13.90;6.30;;;21.70;99.90;;;;;;5046845;28;20520;-52
2022/08/16 06:09:33;;;;;;;14.10;6.63;;;22.00;1.00;;;;;;5048354;28;20421;-52
2022/08/16 06:12:00;;;;;;;11.93;6.25;;;22.10;99.40;;;;;;5048053;28;20498;-52
2022/08/16 06:14:27;;;;;;;12.63;6.40;;;22.20;99.90;;;;;;5047934;28;20480;-54
2022/08/16 06:16:52;;;;;;;12.32;5.90;;;22.30;1.00;;;;;;5046520;28;20747;-52
2022/08/16 06:19:18;;;;;;;12.70;6.07;;;22.40;1.00;;;;;;5046381;28;20397;-55
2022/08/16 06:21:45;;;;;;;13.73;5.90;;;22.60;1.00;;;;;;5048144;28;20810;-52
2022/08/16 06:24:11;;;;;;;12.80;6.47;;;22.90;99.90;;;;;;5048296;28;20390;-52
2022/08/16 06:26:37;;;;;;;11.93;5.80;;;23.00;99.90;;;;;;5046870;28;20413;-52
2022/08/16 06:29:03;;;;;;;10.27;5.55;;;23.30;1.00;;;;;;5048101;28;20413;-53
2022/08/16 06:31:29;;;;;;;13.48;6.30;;;23.40;1.00;;;;;;5045328;28;20489;-53
2022/08/16 06:33:56;;;;;;;13.57;6.30;;;23.60;1.00;;;;;;5048450;28;20473;-52
2022/08/16 06:36:22;;;;;;;13.70;6.55;;;23.60;1.00;;;;;;5047735;28;20432;-55
2022/08/16 06:38:49;;;;;;;11.25;5.45;;;;;;;;;;5047792;28;20410;-53
2022/08/16 06:41:15;;;;;;;11.00;5.35;;;;;;;;;;5047286;28;20394;-52
2022/08/16 06:43:41;;;;;;;11.10;5.97;;;25.60;1.00;;;;;;5047689;28;20385;-53
2022/08/16 06:46:09;;;;;;;12.20;6.53;;;27.40;97.30;;;;;;5047703;28;20424;-53
2022/08/16 06:48:36;;;;;;;11.95;6.40;;;29.40;1.00;;;;;;5048400;28;20742;-53
2022/08/16 06:51:04;;;;;;;10.20;5.88;;;30.60;1.00;;;;;;5048246;28;20451;-51
2022/08/16 06:53:33;;;;;;;10.40;5.90;;;31.60;1.00;;;;;;5046760;28;20958;-51
2022/08/16 06:56:02;;;;;;;10.20;7.00;;;32.10;1.00;;;;;;5046754;28;20410;-51
2022/08/16 06:58:28;;;;;;;11.25;6.15;;;32.30;1.00;;;;;;5047559;28;20396;-51
2022/08/16 07:00:54;;;;;;;11.00;6.93;;;32.50;1.00;;;;;;5048816;28;20385;-51
2022/08/16 07:03:19;;;;;;;12.45;7.10;;;31.60;1.00;;;;;;5048995;28;20402;-54
2022/08/16 07:05:45;;;;;;;12.75;6.45;;;32.10;1.00;;;;;;5048005;28;20404;-51
2022/08/16 07:08:11;;;;;;;13.30;6.80;;;33.00;1.00;;;;;;5046655;28;20393;-51
2022/08/16 07:10:37;;;;;;;13.70;7.60;;;33.50;1.00;;;;;;5045972;28;20625;-51
2022/08/16 07:13:04;;;;;;;12.02;8.27;;;33.80;1.00;;;;;;5048020;28;20390;-52
2022/08/16 07:15:30;;;;;;;13.50;6.90;;;34.70;1.00;;;;;;5051086;28;20413;-53
2022/08/16 07:17:56;;;;;;;14.45;8.00;;;35.20;1.00;;;;;;5051393;28;20448;-53
2022/08/16 07:20:24;;;;;;;9.88;7.60;;;34.20;1.00;;;;;;5051540;28;20875;-56
2022/08/16 07:22:50;;;;;;;11.40;7.70;;;33.80;1.00;;;;;;5052236;28;20385;-51
2022/08/16 07:25:16;;;;;;;9.60;6.38;;;33.40;1.00;;;;;;5051892;28;20407;-51
2022/08/16 07:27:42;;;;;;;13.00;7.28;;;33.50;1.00;;;;;;5050385;28;20402;-53
2022/08/16 07:30:12;;;;;;;10.60;7.00;;;34.20;1.00;;;;;;5050722;28;20881;-53
2022/08/16 07:32:38;;;;;;;13.10;6.17;;;35.50;1.00;;;;;;5049442;28;20401;-53
2022/08/16 07:35:04;;;;;;;11.67;5.40;;;35.20;1.00;;;;;;5051391;28;20393;-53
2022/08/16 07:37:30;;;;;;;9.98;5.78;;;35.00;1.00;;;;;;5050667;28;20393;-53
2022/08/16 07:39:56;;;;;;;10.50;6.20;;;34.50;1.00;;;;;;5051414;28;20764;-53
2022/08/16 07:42:22;;;;;;;10.40;6.33;;;34.90;1.00;;;;;;5049666;28;20429;-57
2022/08/16 07:44:47;;;;;;;9.82;5.03;;;35.20;1.00;;;;;;5051212;28;20961;-54
2022/08/16 07:47:13;;;;;;;9.93;5.38;;;35.20;1.00;;;;;;5053181;28;20481;-53
2022/08/16 07:49:39;;;;;;;10.10;5.63;;;34.50;1.00;;;;;;5050996;28;20408;-53
2022/08/16 07:52:05;;;;;;;9.60;5.40;;;34.00;1.00;;;;;;5050353;28;20389;-53
2022/08/16 07:54:30;;;;;;;8.37;4.40;;;34.00;1.00;;;;;;5049160;28;20385;-51
2022/08/16 07:56:56;;;;;;;9.73;5.35;;;33.50;1.00;;;;;;5051144;28;20544;-53
2022/08/16 07:59:23;;;;;;;9.45;5.45;;;33.60;1.00;;;;;;5050165;28;20397;-56
2022/08/16 08:01:51;;;;;;;9.90;4.97;;;34.00;1.00;;;;;;5052653;28;20405;-53
2022/08/16 08:04:18;;;;;;;9.55;5.50;;;35.10;1.00;;;;;;5050634;28;20429;-54
2022/08/16 08:06:44;;;;;;;9.38;5.70;;;36.10;1.00;;;;;;5046241;28;20402;-53
2022/08/16 08:09:10;;;;;;;10.43;5.30;;;35.80;1.00;;;;;;5051454;28;20394;-53
2022/08/16 08:11:36;;;;;;;11.27;5.70;;;35.90;1.00;;;;;;5048385;28;20747;-54
2022/08/16 08:14:02;;;;;;;9.32;5.20;;;36.10;1.00;;;;;;5049122;28;20419;-54
2022/08/16 08:16:28;;;;;;;9.40;5.80;;;35.80;1.00;;;;;;5049510;28;20470;-53
2022/08/16 08:18:54;;;;;;;9.23;6.25;;;36.40;1.00;;;;;;5050677;28;20918;-53
2022/08/16 08:21:24;;;;;;;9.52;5.60;;;37.00;1.00;;;;;;5049788;28;20760;-57
2022/08/16 08:23:51;;;;;;;10.90;6.15;;;37.00;1.00;;;;;;5050779;28;20484;-53
2022/08/16 08:26:18;;;;;;;9.50;5.00;;;36.50;1.00;;;;;;5049898;28;20552;-54
2022/08/16 08:28:44;;;;;;;10.20;5.60;;;37.50;1.00;;;;;;5050260;28;20512;-53
2022/08/16 08:31:10;;;;;;;11.75;7.00;;;37.70;1.00;;;;;;5051067;28;20688;-53
2022/08/16 08:33:36;;;;;;;9.88;6.18;;;37.60;1.00;;;;;;5050064;28;20467;-53
2022/08/16 08:36:06;;;;;;;12.27;5.70;;;37.20;1.00;;;;;;5051199;28;21033;-53
2022/08/16 08:38:32;;;;;;;9.50;5.30;;;37.00;1.00;;;;;;5049848;28;20382;-53
2022/08/16 08:40:58;;;;;;;10.73;6.40;;;37.00;1.00;;;;;;5050794;28;20385;-53
2022/08/16 08:43:24;;;;;;;12.27;7.67;;;35.20;1.00;;;;;;5050110;28;20377;-51
2022/08/16 08:45:53;;;;;;;9.80;7.80;;;33.40;1.00;;;;;;5032680;28;20422;-53
2022/08/16 08:48:19;;;;;;;9.60;7.30;;;33.20;1.00;;;;;;5050474;28;20454;-57
2022/08/16 08:50:45;;;;;;;11.98;8.65;;;32.90;1.00;;;;;;5050627;28;20859;-53
2022/08/16 08:53:10;;;;;;;12.67;9.53;;;32.00;1.00;;;;;;5032567;28;20390;-53
2022/08/16 08:55:36;;;;;;;12.10;8.50;;;31.30;1.00;;;;;;5049541;28;20397;-53
2022/08/16 08:58:02;;;;;;;9.73;7.20;;;31.00;1.00;;;;;;5050622;28;20401;-53
2022/08/16 09:00:29;;;;;;;10.73;7.10;;;31.50;1.00;;;;;;5031694;28;20435;-53
2022/08/16 09:02:56;;;;;;;12.55;7.95;;;32.50;1.00;;;;;;5050409;28;20385;-53
2022/08/16 09:05:24;;;;;;;11.00;8.10;;;33.60;1.00;;;;;;5050018;28;20406;-57
2022/08/16 09:07:50;;;;;;;12.07;9.07;;;34.20;1.00;;;;;;5050104;28;20882;-53
2022/08/16 09:10:16;;;;;;;10.70;8.27;;;32.90;1.00;;;;;;5050083;28;20500;-53
2022/08/16 09:12:42;;;;;;;11.10;8.30;;;31.50;1.00;;;;;;5049824;28;20434;-53
2022/08/16 09:15:10;;;;;;;13.43;9.90;;;30.80;1.00;;;;;;5050157;28;20394;-53
2022/08/16 09:17:36;;;;;;;12.57;9.77;;;30.20;1.00;;;;;;5049441;28;20396;-53
2022/08/16 09:20:03;;;;;;;11.30;8.00;;;29.80;1.00;;;;;;5050033;28;20386;-54
2022/08/16 09:22:29;;;;;;;13.80;8.45;;;29.70;1.00;;;;;;5049415;28;20384;-52
2022/08/16 09:24:54;;;;;;;11.55;8.35;;;29.00;1.00;;;;;;5049757;28;20575;-53
2022/08/16 09:27:21;;;;;;;12.90;8.93;;;28.50;99.90;;;;;;5050048;28;20405;-56
2022/08/16 09:29:47;;;;;;;10.15;8.00;;;28.30;99.90;;;;;;5031635;28;20895;-53
2022/08/16 09:32:12;;;;;;;13.23;8.88;;;28.10;99.90;;;;;;5049939;28;20387;-53
2022/08/16 09:34:38;;;;;;;13.55;9.18;;;28.20;1.00;;;;;;5049242;28;20392;-53
2022/08/16 09:37:04;;;;;;;13.02;8.32;;;28.40;1.00;;;;;;5048608;28;20409;-53
2022/08/16 09:39:29;;;;;;;15.23;9.10;;;28.60;1.00;;;;;;5049041;28;20397;-53
2022/08/16 09:41:57;;;;;;;11.53;8.87;;;30.50;1.00;;;;;;5049875;28;20801;-53
2022/08/16 09:44:25;;;;;;;11.70;7.00;;;32.40;1.00;;;;;;5048997;28;20373;-56
2022/08/16 09:46:51;;;;;;;10.55;7.50;;;32.60;1.00;;;;;;5049859;28;20397;-53
2022/08/16 09:49:18;;;;;;;10.18;7.82;;;33.60;1.00;;;;;;5049631;28;20427;-56
2022/08/16 09:51:43;;;;;;;12.20;8.50;;;35.30;1.00;;;;;;5048646;28;20386;-53
2022/08/16 09:54:09;;;;;;;11.70;7.90;;;36.60;1.00;;;;;;5049197;28;20393;-55
2022/08/16 09:56:37;;;;;;;10.10;7.25;;;37.60;1.00;;;;;;5048950;28;20393;-51
2022/08/16 09:59:07;;;;;;;10.13;6.22;;;38.80;1.00;;;;;;5049569;28;20468;-51
2022/08/16 10:01:37;;;;;;;10.55;6.50;;;37.90;1.00;;;;;;5048847;28;20471;-53
2022/08/16 10:04:04;;;;;;;9.60;6.05;;;37.50;1.00;;;;;;5049541;28;20393;-53
2022/08/16 10:06:29;;;;;;;8.73;5.85;;;36.10;1.00;;;;;;5048953;28;20424;-53
2022/08/16 10:08:55;;;;;;;11.13;6.30;;;34.40;1.00;;;;;;5049493;28;20462;-53
2022/08/16 10:14:07;;;;;;;13.32;8.50;;;32.80;1.00;;;;;;5049278;28;20410;-54
2022/08/16 10:16:33;;;;;;;13.23;7.82;;;32.80;1.00;;;;;;5048752;28;20382;-53
2022/08/16 10:18:59;;;;;;;12.50;8.00;;;33.20;1.00;;;;;;5049656;28;20391;-53
2022/08/16 10:21:25;;;;;;;9.40;6.97;;;32.70;1.00;;;;;;5048752;28;20386;-56
2022/08/16 10:23:53;;;;;;;9.40;7.50;;;31.90;1.00;;;;;;5049432;28;20386;-53
2022/08/16 10:26:20;;;;;;;11.88;8.80;;;31.50;1.00;;;;;;5048967;28;20432;-54
2022/08/16 10:28:45;;;;;;;11.35;8.38;;;31.30;1.00;;;;;;5048264;28;20456;-53
2022/08/16 10:31:12;;;;;;;12.80;7.30;;;31.30;1.00;;;;;;5049261;28;20432;-53
2022/08/16 10:33:38;;;;;;;10.32;7.10;;;30.50;1.00;;;;;;5048532;28;20488;-53
2022/08/16 10:36:06;;;;;;;11.23;8.35;;;29.90;1.00;;;;;;5049383;28;20429;-53
2022/08/16 10:38:34;;;;;;;10.43;8.18;;;30.00;1.00;;;;;;5048313;28;20377;-53
2022/08/16 10:41:00;;;;;;;10.55;7.90;;;29.90;1.00;;;;;;5048808;28;20381;-53
2022/08/16 10:43:26;;;;;;;11.63;9.20;;;29.70;1.00;;;;;;5048022;28;20385;-53
2022/08/16 10:45:52;;;;;;;10.10;8.23;;;29.50;1.00;;;;;;5049234;28;20499;-53
2022/08/16 10:48:18;;;;;;;11.30;8.13;;;29.70;1.00;;;;;;5049508;28;20847;-53
2022/08/16 10:50:44;;;;;;;11.00;7.80;;;30.20;1.00;;;;;;5052155;28;20500;-53
2022/08/16 10:53:10;;;;;;;11.38;7.38;;;30.30;1.00;;;;;;5052912;28;20385;-53
2022/08/16 10:55:38;;;;;;;10.40;6.78;;;31.10;1.00;;;;;;5051882;28;20399;-53
2022/08/16 10:58:07;;;;;;;11.20;7.30;;;31.40;1.00;;;;;;5052639;28;20393;-53
2022/08/16 11:00:36;;;;;;;10.43;8.00;;;31.60;1.00;;;;;;5052053;28;20369;-53
2022/08/16 11:03:03;;;;;;;10.83;7.73;;;31.00;1.00;;;;;;5052771;28;20389;-53
2022/08/16 11:05:30;;;;;;;10.07;8.00;;;30.90;1.00;;;;;;5051714;28;20398;-53
2022/08/16 11:07:57;;;;;;;10.15;8.00;;;31.30;1.00;;;;;;5052451;28;20715;-53
2022/08/16 11:10:43;;;;;;;11.52;7.88;;;31.30;1.00;;;;;;5052151;28;20734;-56
2022/08/16 11:13:11;;;;;;;14.17;7.00;;;30.80;1.00;;;;;;5052427;28;20382;-53
2022/08/16 11:15:37;;;;;;;10.98;8.10;;;31.10;1.00;;;;;;5051729;28;20386;-54
2022/08/16 11:18:05;;;;;;;9.65;6.85;;;31.30;1.00;;;;;;5052546;28;20377;-53
2022/08/16 11:20:31;;;;;;;10.10;7.30;;;31.00;1.00;;;;;;5051273;28;20771;-53
2022/08/16 11:22:58;;;;;;;11.48;8.05;;;30.90;1.00;;;;;;5052007;28;20385;-53
2022/08/16 11:25:26;;;;;;;10.63;8.23;;;31.20;1.00;;;;;;5051725;28;20500;-56
2022/08/16 11:27:54;;;;;;;11.98;7.47;;;31.60;1.00;;;;;;5051806;28;20385;-53
2022/08/16 11:30:20;;;;;;;11.27;8.40;;;32.10;1.00;;;;;;5051982;28;20793;-53
2022/08/16 11:32:46;;;;;;;11.20;6.90;;;32.60;1.00;;;;;;5051485;28;20385;-54
2022/08/16 11:35:22;;;;;;;9.97;7.17;;;32.40;1.00;;;;;;5052237;28;20384;-53
2022/08/16 11:38:19;;;;;;;10.80;7.68;;;32.10;1.00;;;;;;5051595;28;20431;-53
2022/08/16 11:40:56;;;;;;;11.95;8.00;;;32.10;1.00;;;;;;5049986;28;20835;-53
2022/08/16 11:43:26;;;;;;;11.15;7.35;;;32.20;1.00;;;;;;5051899;28;20382;-53
2022/08/16 11:45:53;;;;;;;11.80;7.53;;;32.10;1.00;;;;;;5051747;28;20404;-53
2022/08/16 11:48:19;;;;;;;11.70;7.50;;;32.20;1.00;;;;;;5051654;28;20386;-53
2022/08/16 11:50:46;;;;;;;11.10;7.80;;;31.90;1.00;;;;;;5050697;28;21017;-53
2022/08/16 11:53:13;;;;;;;11.10;8.25;;;31.60;1.00;;;;;;5051608;28;20390;-53
2022/08/16 11:55:39;;;;;;;10.60;7.83;;;31.20;1.00;;;;;;5050716;28;20404;-53
2022/08/16 11:58:07;;;;;;;10.50;7.95;;;31.20;1.00;;;;;;5051203;28;20385;-53
2022/08/16 12:00:34;;;;;;;11.60;8.33;;;31.00;1.00;;;;;;5049941;28;20485;-54
2022/08/16 12:03:00;;;;;;;10.65;6.80;;;31.20;1.00;;;;;;5051613;28;20377;-53
2022/08/16 12:05:26;;;;;;;9.68;6.85;;;31.60;1.00;;;;;;5050900;28;20554;-57
2022/08/16 12:07:54;;;;;;;11.60;6.85;;;31.90;1.00;;;;;;5051252;28;20404;-53
2022/08/16 12:10:22;;;;;;;10.38;7.00;;;32.10;1.00;;;;;;5051197;28;20463;-53
2022/08/16 12:12:48;;;;;;;10.60;5.90;;;32.20;1.00;;;;;;5050953;28;20385;-53
2022/08/16 12:15:14;;;;;;;9.35;6.75;;;32.30;1.00;;;;;;5051074;28;20392;-53
2022/08/16 12:17:42;;;;;;;10.60;7.50;;;32.00;1.00;;;;;;5050433;28;20384;-53
2022/08/16 12:20:11;;;;;;;10.00;7.32;;;31.60;1.00;;;;;;5051228;28;20418;-53
2022/08/16 12:22:37;;;;;;;9.52;7.13;;;31.40;1.00;;;;;;5050195;28;20739;-53
2022/08/16 12:25:10;;;;;;;9.27;6.10;;;31.70;1.00;;;;;;5050701;28;20398;-53
2022/08/16 12:27:37;;;;;;;10.45;7.15;;;31.70;1.00;;;;;;5049953;28;20388;-53
2022/08/16 12:30:04;;;;;;;9.10;6.20;;;31.60;1.00;;;;;;5051122;28;20389;-53
2022/08/16 12:32:30;;;;;;;10.30;7.35;;;31.90;1.00;;;;;;5049888;28;20394;-53
2022/08/16 12:34:55;;;;;;;9.77;7.05;;;32.30;1.00;;;;;;5050628;28;20393;-53
2022/08/16 12:37:23;;;;;;;9.20;6.88;;;32.30;1.00;;;;;;5032756;28;20398;-54
2022/08/16 12:39:49;;;;;;;9.67;6.10;;;32.20;1.00;;;;;;5049880;28;20398;-53
2022/08/16 12:42:18;;;;;;;11.32;6.80;;;32.30;1.00;;;;;;5050755;28;20863;-53
2022/08/16 12:44:44;;;;;;;9.70;7.53;;;32.40;1.00;;;;;;5049623;28;20918;-53
2022/08/16 12:49:53;;;;;;;12.13;6.90;;;32.30;1.00;;;;;;5050522;28;20459;-53
2022/08/16 12:52:19;;;;;;;10.80;7.33;;;32.20;1.00;;;;;;5050556;28;20377;-53